Time;durP1;ratioP1;P1;durP2;ratioP2;P2;SDS_P1;SDS_P2;PMS_P1;PMS_P2;Temp;Humidity;BMP_temperature;BMP_pressure;BME280_temperature;BME280_humidity;BME280_pressure;Samples;Min_cycle;Max_cycle;Signal;HPM_P1;HPM_P2
2023/04/30 00:04:24;;;;;;;5.60;2.70;;;21.90;58.50;;;;;;10565121;28;20087;-23
2023/04/30 00:09:27;;;;;;;6.85;3.08;;;21.80;58.60;;;;;;10568027;28;20104;-25
2023/04/30 00:14:29;;;;;;;8.60;3.20;;;21.80;58.60;;;;;;10570066;28;20044;-23
2023/04/30 00:19:31;;;;;;;6.88;3.65;;;21.80;58.70;;;;;;10560022;28;20043;-23
2023/04/30 00:24:34;;;;;;;6.22;2.60;;;21.70;58.80;;;;;;10570008;28;20134;-23
2023/04/30 00:29:36;;;;;;;4.22;2.90;;;21.70;58.90;;;;;;10564393;28;20048;-24
2023/04/30 00:34:38;;;;;;;4.78;3.10;;;21.60;58.90;;;;;;10567647;28;20781;-24
2023/04/30 00:39:41;;;;;;;;;;;21.60;59.10;;;;;;10559983;28;20044;-24
2023/04/30 00:44:43;;;;;;;5.13;2.88;;;21.50;59.10;;;;;;10565881;28;19926;-24
2023/04/30 00:49:45;;;;;;;5.97;3.08;;;21.50;59.20;;;;;;10554398;28;20051;-24
2023/04/30 00:54:49;;;;;;;3.20;2.33;;;21.40;59.30;;;;;;10560962;28;20075;-24
2023/04/30 00:59:51;;;;;;;7.55;2.70;;;21.40;59.30;;;;;;10562007;28;20036;-23
2023/04/30 01:04:54;;;;;;;4.43;2.60;;;21.40;59.40;;;;;;10547925;28;20039;-23
2023/04/30 01:09:57;;;;;;;4.20;2.83;;;21.30;59.30;;;;;;10569794;28;20043;-23
2023/04/30 01:15:07;;;;;;;5.45;2.67;;;21.30;59.60;;;;;;10575385;28;20130;-23
2023/04/30 01:20:10;;;;;;;8.55;3.00;;;21.30;59.60;;;;;;10564094;28;20063;-23
2023/04/30 01:25:36;;;;;;;4.63;2.78;;;21.20;59.70;;;;;;10569029;28;20055;-23
2023/04/30 01:30:40;;;;;;;3.80;2.80;;;21.20;59.80;;;;;;10577388;28;20047;-23
2023/04/30 01:36:10;;;;;;;4.60;2.70;;;21.20;59.80;;;;;;10575291;28;20039;-23
2023/04/30 01:41:20;;;;;;;3.03;2.03;;;21.10;59.90;;;;;;10577432;28;20040;-23
2023/04/30 01:46:27;;;;;;;3.60;2.40;;;21.10;59.90;;;;;;10574468;28;20137;-23
2023/04/30 01:51:33;;;;;;;5.32;2.70;;;21.10;59.80;;;;;;10567876;28;20058;-23
2023/04/30 01:56:42;;;;;;;6.47;2.45;;;21.00;60.00;;;;;;10561724;28;20505;-23
2023/04/30 02:01:46;;;;;;;6.40;2.80;;;21.00;60.00;;;;;;10578325;28;20617;-23
2023/04/30 02:06:48;;;;;;;5.63;2.22;;;20.90;60.00;;;;;;10570120;28;20047;-23
2023/04/30 02:11:50;;;;;;;3.83;2.50;;;20.90;60.00;;;;;;10562058;28;20554;-24
2023/04/30 02:16:53;;;;;;;5.60;2.55;;;20.90;60.00;;;;;;10554670;28;20390;-24
2023/04/30 02:21:55;;;;;;;5.43;2.40;;;20.90;60.10;;;;;;10564856;28;20131;-24
2023/04/30 02:26:57;;;;;;;3.90;2.42;;;20.90;60.10;;;;;;10564242;28;20158;-24
2023/04/30 02:32:00;;;;;;;6.53;2.53;;;20.80;60.00;;;;;;10576018;28;20548;-23
2023/04/30 02:37:02;;;;;;;2.67;1.77;;;20.80;60.00;;;;;;10569749;28;20051;-23
2023/04/30 02:42:05;;;;;;;2.75;2.05;;;20.70;60.10;;;;;;10572757;28;20059;-23
2023/04/30 02:47:08;;;;;;;2.45;1.98;;;20.70;60.10;;;;;;10566425;28;20043;-23
2023/04/30 02:52:10;;;;;;;4.47;2.45;;;20.70;60.10;;;;;;10573678;28;20048;-23
2023/04/30 02:57:12;;;;;;;4.47;2.20;;;20.70;60.20;;;;;;10564709;28;20102;-24
2023/04/30 03:02:19;;;;;;;4.63;2.33;;;20.60;60.00;;;;;;10558848;28;20134;-23
2023/04/30 03:07:21;;;;;;;3.47;2.33;;;20.60;60.10;;;;;;10568756;28;20130;-23
2023/04/30 03:12:23;;;;;;;6.32;2.22;;;20.60;60.00;;;;;;10571695;28;20167;-23
2023/04/30 03:17:26;;;;;;;4.00;2.05;;;20.60;60.00;;;;;;10566469;28;20079;-23
2023/04/30 03:22:28;;;;;;;2.92;1.95;;;20.50;60.20;;;;;;10573779;28;20039;-24
2023/04/30 03:27:30;;;;;;;3.08;2.10;;;20.50;60.20;;;;;;10556747;28;20055;-24
2023/04/30 03:32:33;;;;;;;3.42;2.25;;;20.50;60.20;;;;;;10561918;28;20083;-24
2023/04/30 03:37:35;;;;;;;3.38;2.00;;;20.50;60.10;;;;;;10562537;28;20487;-22
2023/04/30 03:42:37;;;;;;;3.22;2.08;;;20.40;59.90;;;;;;10561073;28;20484;-23
2023/04/30 03:47:40;;;;;;;5.00;2.30;;;20.40;60.20;;;;;;10560091;28;20495;-23
2023/04/30 03:52:42;;;;;;;4.60;2.00;;;20.30;60.30;;;;;;10559141;28;20425;-24
2023/04/30 03:57:44;;;;;;;5.15;2.22;;;20.40;60.20;;;;;;10562932;28;20075;-23
2023/04/30 04:02:47;;;;;;;;;;;20.30;60.40;;;;;;10563775;28;20083;-23
2023/04/30 04:07:49;;;;;;;2.72;1.80;;;20.30;60.40;;;;;;10562395;28;19927;-22
2023/04/30 04:12:51;;;;;;;9.82;2.10;;;20.30;60.60;;;;;;10552662;28;20445;-23
2023/04/30 04:17:54;;;;;;;4.68;2.03;;;20.20;60.40;;;;;;10563205;28;20078;-23
2023/04/30 04:22:56;;;;;;;4.10;1.92;;;20.20;60.50;;;;;;10568125;28;20075;-23
2023/04/30 04:27:58;;;;;;;2.70;1.90;;;20.20;60.30;;;;;;10562571;28;20467;-22
2023/04/30 04:33:01;;;;;;;2.80;1.67;;;20.20;60.40;;;;;;10566799;28;20044;-22
2023/04/30 04:38:03;;;;;;;3.22;2.00;;;20.20;60.40;;;;;;10557176;28;20044;-23
2023/04/30 04:43:06;;;;;;;5.32;2.10;;;20.20;60.40;;;;;;10561849;28;20051;-23
2023/04/30 04:48:09;;;;;;;1.92;1.70;;;20.20;60.50;;;;;;10566788;28;20428;-24
2023/04/30 04:53:10;;;;;;;2.97;1.75;;;20.20;60.50;;;;;;10558914;28;20119;-24
2023/04/30 04:58:12;;;;;;;2.47;1.80;;;20.20;60.40;;;;;;10562436;28;20096;-25
2023/04/30 05:03:16;;;;;;;2.28;1.55;;;20.20;60.60;;;;;;10571485;28;20059;-24
2023/04/30 05:08:18;;;;;;;2.13;1.40;;;20.20;60.80;;;;;;10571773;28;20083;-24
2023/04/30 05:13:20;;;;;;;3.00;1.60;;;20.20;60.10;;;;;;10568495;28;20125;-24
2023/04/30 05:18:23;;;;;;;1.67;1.58;;;20.10;60.10;;;;;;10569273;28;20198;-22
2023/04/30 05:23:25;;;;;;;2.90;1.60;;;20.20;59.90;;;;;;10573455;28;20091;-23
2023/04/30 05:28:26;;;;;;;2.35;1.77;;;20.20;59.80;;;;;;10569184;28;20071;-23
2023/04/30 05:33:30;;;;;;;2.30;1.65;;;20.10;59.60;;;;;;10569515;28;20651;-23
2023/04/30 05:38:31;;;;;;;3.30;1.88;;;20.10;59.60;;;;;;10571671;28;20055;-23
2023/04/30 05:43:33;;;;;;;2.70;1.70;;;20.20;59.60;;;;;;10556199;28;20725;-24
2023/04/30 05:48:37;;;;;;;1.95;1.50;;;20.10;59.40;;;;;;10566234;28;20667;-23
2023/04/30 05:53:39;;;;;;;2.53;1.48;;;20.10;59.50;;;;;;10566025;28;20055;-24
2023/04/30 05:58:41;;;;;;;1.48;1.38;;;20.10;59.40;;;;;;10568478;28;20051;-22
2023/04/30 06:03:44;;;;;;;4.93;1.35;;;20.20;59.40;;;;;;10557464;28;20053;-23
2023/04/30 06:08:46;;;;;;;3.08;1.35;;;20.20;59.10;;;;;;10572421;28;20134;-24
2023/04/30 06:13:48;;;;;;;6.00;1.63;;;20.20;58.90;;;;;;10564839;28;20051;-23
2023/04/30 06:18:52;;;;;;;1.50;1.00;;;20.20;58.90;;;;;;10563426;28;20087;-23
2023/04/30 06:23:54;;;;;;;1.70;1.05;;;20.30;58.90;;;;;;10568250;28;20083;-24
2023/04/30 06:28:55;;;;;;;1.63;1.10;;;20.30;58.80;;;;;;10566318;28;20126;-24
2023/04/30 06:33:59;;;;;;;2.78;1.10;;;20.30;58.60;;;;;;10576414;28;20122;-24
2023/04/30 06:39:02;;;;;;;2.75;1.77;;;20.30;58.50;;;;;;10560061;28;20093;-24
2023/04/30 06:44:04;;;;;;;1.88;1.33;;;20.40;58.40;;;;;;10559426;28;20063;-25
2023/04/30 06:49:07;;;;;;;1.98;1.45;;;20.40;58.50;;;;;;10559712;28;20485;-24
2023/04/30 06:54:09;;;;;;;2.35;1.20;;;20.50;58.50;;;;;;10558829;28;20078;-23
2023/04/30 06:59:11;;;;;;;1.77;1.02;;;20.50;58.70;;;;;;10549886;28;20044;-23
2023/04/30 07:04:15;;;;;;;0.77;0.75;;;20.50;58.80;;;;;;10561334;28;20044;-24
2023/04/30 07:09:16;;;;;;;1.00;0.85;;;20.60;59.00;;;;;;10546562;28;20154;-24
2023/04/30 07:14:18;;;;;;;0.75;0.75;;;20.60;59.00;;;;;;10557603;28;20071;-24
2023/04/30 07:19:22;;;;;;;1.98;1.13;;;20.30;59.60;;;;;;10557713;28;20069;-23
2023/04/30 07:24:24;;;;;;;4.50;1.08;;;20.30;60.00;;;;;;10557879;28;20131;-23
2023/04/30 07:29:26;;;;;;;1.45;0.88;;;20.50;59.80;;;;;;10554698;28;20048;-23
2023/04/30 07:34:29;;;;;;;6.32;0.88;;;20.30;60.20;;;;;;10548383;28;20043;-24
2023/04/30 07:39:31;;;;;;;1.88;1.10;;;20.20;60.90;;;;;;10557376;28;20054;-24
2023/04/30 07:44:33;;;;;;;3.03;1.15;;;20.20;61.30;;;;;;10558811;28;20090;-24
2023/04/30 07:49:37;;;;;;;2.53;1.10;;;20.20;61.50;;;;;;10565729;28;20079;-23
2023/04/30 07:54:39;;;;;;;1.15;1.00;;;20.20;62.00;;;;;;10556251;28;20129;-24
2023/04/30 07:59:40;;;;;;;;;;;20.40;61.00;;;;;;10570648;28;20423;-23
2023/04/30 08:04:44;;;;;;;2.53;1.35;;;20.50;60.80;;;;;;10561107;28;20006;-24
2023/04/30 08:09:45;;;;;;;2.25;1.00;;;20.60;60.50;;;;;;10561777;28;20072;-24
2023/04/30 08:14:48;;;;;;;1.80;1.00;;;20.70;60.30;;;;;;10563136;28;20120;-24
2023/04/30 08:19:51;;;;;;;1.27;1.10;;;20.80;60.40;;;;;;10565474;28;20100;-24
2023/04/30 08:24:54;;;;;;;7.53;1.13;;;20.90;60.30;;;;;;10560593;28;20139;-24
2023/04/30 08:29:56;;;;;;;1.95;0.88;;;20.90;60.30;;;;;;10560875;28;20150;-24
2023/04/30 08:34:59;;;;;;;2.80;1.00;;;21.00;60.10;;;;;;10569049;28;20086;-24
2023/04/30 08:40:01;;;;;;;0.95;0.75;;;21.00;60.40;;;;;;10568618;28;20442;-24
2023/04/30 08:45:04;;;;;;;1.85;0.93;;;21.00;60.30;;;;;;10565605;28;20055;-24
2023/04/30 08:50:08;;;;;;;1.83;1.35;;;21.00;60.30;;;;;;10562259;28;20051;-24
2023/04/30 08:55:11;;;;;;;0.80;0.70;;;21.00;60.50;;;;;;10565856;28;20127;-24
2023/04/30 09:00:14;;;;;;;1.45;0.80;;;21.10;59.90;;;;;;10566637;28;20044;-23
2023/04/30 09:05:17;;;;;;;2.25;0.98;;;21.30;59.60;;;;;;10560367;28;20502;-24
2023/04/30 09:10:21;;;;;;;2.92;1.00;;;21.30;59.50;;;;;;10547309;28;20408;-23
2023/04/30 09:15:23;;;;;;;0.80;0.68;;;21.40;59.10;;;;;;10564444;28;20441;-25
2023/04/30 09:20:27;;;;;;;1.70;0.85;;;21.50;59.10;;;;;;10552689;28;20071;-23
2023/04/30 09:25:39;;;;;;;1.98;1.05;;;21.50;59.20;;;;;;10562558;28;20058;-23
2023/04/30 09:30:41;;;;;;;;;;;21.50;59.30;;;;;;10552421;28;20044;-24
2023/04/30 09:35:44;;;;;;;0.98;0.70;;;21.60;59.00;;;;;;10561473;28;20026;-24
2023/04/30 09:40:46;;;;;;;2.75;0.88;;;21.60;59.30;;;;;;10572677;28;20132;-24
2023/04/30 09:45:50;;;;;;;;;;;21.60;59.80;;;;;;10574367;27;20423;-23
2023/04/30 09:50:53;;;;;;;2.03;1.00;;;21.80;58.90;;;;;;10564383;28;19919;-24
2023/04/30 09:55:58;;;;;;;1.42;0.75;;;21.80;59.00;;;;;;10570630;28;20052;-24
2023/04/30 10:01:02;;;;;;;5.25;1.05;;;21.80;59.20;;;;;;10572660;28;20725;-24
2023/04/30 10:06:06;;;;;;;1.73;0.90;;;21.90;59.10;;;;;;10564815;28;20051;-24
2023/04/30 10:11:11;;;;;;;1.35;0.80;;;21.90;59.20;;;;;;10576811;28;20142;-24
2023/04/30 10:16:18;;;;;;;1.52;0.82;;;22.00;59.10;;;;;;10562454;28;20043;-26
2023/04/30 10:21:25;;;;;;;1.23;0.60;;;22.00;58.90;;;;;;10558235;28;20055;-24
2023/04/30 10:26:29;;;;;;;0.73;0.63;;;22.10;58.90;;;;;;10572748;28;20053;-24
2023/04/30 10:31:32;;;;;;;0.85;0.63;;;22.20;58.60;;;;;;10571392;28;20048;-25
2023/04/30 10:36:40;;;;;;;0.70;0.52;;;22.20;58.90;;;;;;10566684;28;20485;-24
2023/04/30 10:41:45;;;;;;;0.73;0.50;;;22.30;58.20;;;;;;10562223;28;20495;-24
2023/04/30 10:46:47;;;;;;;1.27;0.77;;;22.50;57.90;;;;;;10565544;28;20091;-24
2023/04/30 10:51:53;;;;;;;1.30;0.80;;;22.90;56.50;;;;;;10543226;28;20047;-24
2023/04/30 10:57:08;;;;;;;1.70;0.68;;;22.60;57.70;;;;;;10550385;28;20058;-23
2023/04/30 11:02:11;;;;;;;0.60;0.55;;;22.90;56.40;;;;;;10555085;28;20044;-25
2023/04/30 11:07:14;;;;;;;1.40;0.80;;;22.70;57.40;;;;;;10571675;28;20044;-24
2023/04/30 11:12:27;;;;;;;3.25;0.90;;;22.60;57.50;;;;;;10569137;28;20048;-23
2023/04/30 11:17:29;;;;;;;1.27;0.75;;;22.70;57.20;;;;;;10557033;28;20044;-23
2023/04/30 11:22:35;;;;;;;6.18;0.73;;;22.80;57.30;;;;;;10561323;28;20564;-23
2023/04/30 11:27:39;;;;;;;2.85;0.70;;;23.20;55.80;;;;;;10552573;28;20109;-24
2023/04/30 11:32:44;;;;;;;2.67;0.68;;;23.00;57.00;;;;;;10568803;28;20051;-24
2023/04/30 11:37:48;;;;;;;1.00;0.50;;;23.10;56.50;;;;;;10555682;28;20081;-23
2023/04/30 11:42:50;;;;;;;5.93;1.00;;;23.40;55.80;;;;;;10560813;28;20532;-24
2023/04/30 11:47:54;;;;;;;2.17;0.73;;;23.20;56.20;;;;;;10567589;28;20096;-23
2023/04/30 11:53:00;;;;;;;1.25;0.57;;;23.50;55.50;;;;;;10569342;28;20135;-23
2023/04/30 11:58:02;;;;;;;1.27;0.88;;;23.70;55.00;;;;;;10559686;28;20067;-23
2023/04/30 12:03:04;;;;;;;;;;;23.40;55.70;;;;;;10557625;28;20047;-23
2023/04/30 12:08:08;;;;;;;0.40;0.40;;;23.80;54.60;;;;;;10554179;28;20284;-23
2023/04/30 12:13:13;;;;;;;3.22;0.70;;;23.80;54.60;;;;;;10551871;28;20066;-23
2023/04/30 12:18:15;;;;;;;1.20;0.60;;;23.70;57.10;;;;;;10553971;28;20047;-23
2023/04/30 12:23:19;;;;;;;;;;;23.70;56.10;;;;;;10553444;28;20040;-24
2023/04/30 12:28:24;;;;;;;2.95;1.10;;;23.70;56.40;;;;;;10550267;28;19946;-24
2023/04/30 12:33:30;;;;;;;2.22;0.90;;;23.90;55.60;;;;;;10562370;28;20047;-23
2023/04/30 12:38:33;;;;;;;2.42;0.80;;;24.20;55.40;;;;;;10554411;28;20043;-24
2023/04/30 12:43:35;;;;;;;1.05;0.90;;;24.30;55.00;;;;;;10554662;28;20591;-25
2023/04/30 12:48:43;;;;;;;;;;;24.70;53.30;;;;;;10560664;28;20079;-24
2023/04/30 12:53:46;;;;;;;2.92;0.80;;;24.70;53.20;;;;;;10559633;28;20015;-24
2023/04/30 12:58:49;;;;;;;1.50;0.68;;;24.70;53.00;;;;;;10556250;28;20083;-24
2023/04/30 13:03:52;;;;;;;1.13;0.73;;;25.10;51.90;;;;;;10556060;28;20067;-24
2023/04/30 13:08:55;;;;;;;0.82;0.63;;;25.10;52.90;;;;;;10573970;28;20043;-23
2023/04/30 13:13:57;;;;;;;0.95;0.55;;;25.10;53.50;;;;;;10564728;28;20050;-22
2023/04/30 13:18:59;;;;;;;1.60;0.70;;;25.80;51.30;;;;;;10575023;28;20119;-24
2023/04/30 13:24:02;;;;;;;1.15;0.75;;;25.90;51.40;;;;;;10571838;28;20082;-24
2023/04/30 13:29:04;;;;;;;1.38;0.80;;;25.60;52.50;;;;;;10565185;28;20131;-23
2023/04/30 13:34:06;;;;;;;1.40;0.68;;;25.90;53.60;;;;;;10565349;28;20403;-25
2023/04/30 13:39:09;;;;;;;1.40;0.60;;;26.00;52.00;;;;;;10566753;28;20534;-24
2023/04/30 13:44:11;;;;;;;1.00;0.50;;;26.30;52.00;;;;;;10574443;28;20122;-25
2023/04/30 13:49:13;;;;;;;0.98;0.60;;;25.70;53.10;;;;;;10567267;28;20139;-24
2023/04/30 13:54:16;;;;;;;1.15;0.45;;;26.40;52.60;;;;;;10570378;28;20135;-24
2023/04/30 13:59:18;;;;;;;3.13;0.70;;;26.40;51.60;;;;;;10572326;28;20055;-23
2023/04/30 14:04:20;;;;;;;0.60;0.40;;;26.30;51.60;;;;;;10558286;28;20525;-23
2023/04/30 14:09:23;;;;;;;1.00;0.80;;;26.30;52.00;;;;;;10565598;28;20094;-23
2023/04/30 14:14:26;;;;;;;1.85;0.80;;;27.10;49.10;;;;;;10545167;28;20122;-23
2023/04/30 14:19:28;;;;;;;1.85;0.60;;;27.10;50.60;;;;;;10560200;28;20104;-22
2023/04/30 14:24:31;;;;;;;1.90;0.50;;;27.00;52.30;;;;;;10552847;28;20042;-23
2023/04/30 14:29:33;;;;;;;1.70;1.30;;;27.20;54.50;;;;;;10568001;28;20837;-24
2023/04/30 14:34:35;;;;;;;3.75;0.82;;;27.50;53.60;;;;;;10557990;28;20139;-23
2023/04/30 14:39:38;;;;;;;0.90;0.75;;;27.50;51.80;;;;;;10554751;28;20048;-24
2023/04/30 14:44:40;;;;;;;2.58;1.25;;;28.60;52.70;;;;;;10560537;28;20051;-24
2023/04/30 14:49:42;;;;;;;2.00;1.17;;;28.70;50.50;;;;;;10566420;28;20060;-23
2023/04/30 14:54:46;;;;;;;1.20;1.00;;;28.90;54.20;;;;;;10567761;28;20043;-24
2023/04/30 14:59:48;;;;;;;1.67;1.00;;;28.90;50.90;;;;;;10575922;28;20044;-24
2023/04/30 15:04:50;;;;;;;1.42;0.98;;;29.20;54.20;;;;;;10554214;28;20131;-24
2023/04/30 15:09:53;;;;;;;1.83;0.82;;;28.90;50.70;;;;;;10548250;28;20055;-22
2023/04/30 15:14:55;;;;;;;1.50;0.80;;;28.40;48.70;;;;;;10553660;28;20090;-25
2023/04/30 15:19:59;;;;;;;1.23;0.70;;;28.90;52.70;;;;;;10562531;28;20100;-24
2023/04/30 15:25:04;;;;;;;0.90;0.70;;;29.00;54.60;;;;;;10554315;28;20052;-24
2023/04/30 15:30:07;;;;;;;1.00;0.80;;;29.70;52.40;;;;;;10548752;28;20063;-24
2023/04/30 15:35:09;;;;;;;0.70;0.70;;;29.80;60.80;;;;;;10547002;28;20383;-25
2023/04/30 15:40:14;;;;;;;2.38;0.60;;;30.10;51.90;;;;;;10564855;28;20082;-25
2023/04/30 15:45:35;;;;;;;0.93;0.65;;;29.90;52.10;;;;;;10563535;28;20097;-24
2023/04/30 15:50:39;;;;;;;1.20;0.68;;;32.20;82.30;;;;;;10541991;28;20067;-23
2023/04/30 15:55:42;;;;;;;0.90;0.70;;;33.20;65.10;;;;;;10553363;28;20374;-24
2023/04/30 16:00:45;;;;;;;2.35;0.65;;;32.80;64.10;;;;;;10558977;28;20055;-24
2023/04/30 16:05:46;;;;;;;0.77;0.60;;;30.30;55.80;;;;;;10554613;28;20051;-25
2023/04/30 16:10:50;;;;;;;1.65;0.60;;;29.80;54.40;;;;;;10562333;28;20044;-24
2023/04/30 16:15:52;;;;;;;1.63;0.82;;;29.80;52.30;;;;;;10567972;28;20079;-24
2023/04/30 16:20:53;;;;;;;1.70;1.05;;;30.10;48.50;;;;;;10558104;28;20616;-26
2023/04/30 16:25:57;;;;;;;2.85;0.98;;;29.60;54.00;;;;;;10563941;28;20475;-24
2023/04/30 16:30:59;;;;;;;1.10;0.80;;;29.50;52.30;;;;;;10552774;28;20131;-24
2023/04/30 16:36:01;;;;;;;1.20;0.70;;;29.50;67.30;;;;;;10543385;28;20051;-25
2023/04/30 16:41:04;;;;;;;3.85;0.82;;;29.10;52.10;;;;;;10575346;28;20123;-26
2023/04/30 16:46:06;;;;;;;0.73;0.68;;;29.90;55.20;;;;;;10552030;28;20065;-27
2023/04/30 16:51:08;;;;;;;1.27;1.17;;;30.90;58.40;;;;;;10569265;28;20043;-25
2023/04/30 16:56:11;;;;;;;1.15;0.80;;;31.90;69.20;;;;;;10560920;28;20783;-25
2023/04/30 17:01:14;;;;;;;0.60;0.60;;;30.50;54.50;;;;;;10572490;28;20082;-24
2023/04/30 17:06:16;;;;;;;1.75;0.80;;;30.10;54.70;;;;;;10564359;28;20048;-26
2023/04/30 17:11:21;;;;;;;0.70;0.55;;;29.90;53.90;;;;;;10566961;28;20138;-24
2023/04/30 17:16:23;;;;;;;1.38;0.68;;;30.00;54.40;;;;;;10570552;28;20063;-24
2023/04/30 17:21:28;;;;;;;1.10;0.60;;;29.70;53.50;;;;;;10558382;28;20079;-25
2023/04/30 17:26:32;;;;;;;1.00;0.80;;;29.90;55.60;;;;;;10568537;28;20488;-24
2023/04/30 17:31:34;;;;;;;0.75;0.60;;;29.70;57.30;;;;;;10577612;28;20072;-25
2023/04/30 17:36:36;;;;;;;0.85;0.50;;;29.50;53.50;;;;;;10572051;28;20510;-24
2023/04/30 17:41:39;;;;;;;2.00;1.00;;;29.30;52.70;;;;;;10562252;28;20048;-25
2023/04/30 17:46:42;;;;;;;0.70;0.65;;;29.30;52.50;;;;;;10560552;28;20083;-25
2023/04/30 17:51:44;;;;;;;1.95;0.80;;;29.20;52.80;;;;;;10566719;28;20061;-25
2023/04/30 17:56:48;;;;;;;0.60;0.50;;;29.10;52.40;;;;;;10577925;28;20483;-25
2023/04/30 18:01:49;;;;;;;0.73;0.60;;;29.10;52.30;;;;;;10578584;28;20063;-25
2023/04/30 18:06:52;;;;;;;0.88;0.73;;;29.00;52.40;;;;;;10565113;28;20106;-24
2023/04/30 18:11:57;;;;;;;3.25;0.80;;;28.90;52.40;;;;;;10550598;28;20047;-24
2023/04/30 18:16:59;;;;;;;0.90;0.60;;;28.80;52.30;;;;;;10574674;28;20062;-23
2023/04/30 18:22:01;;;;;;;0.70;0.70;;;28.80;52.40;;;;;;10569817;28;20105;-25
2023/04/30 18:27:05;;;;;;;0.68;0.52;;;28.60;52.70;;;;;;10569902;28;20040;-27
2023/04/30 18:32:11;;;;;;;0.60;0.50;;;28.60;52.50;;;;;;10571745;28;20442;-25
2023/04/30 18:37:16;;;;;;;1.83;0.90;;;28.50;52.60;;;;;;10564857;28;20048;-25
2023/04/30 18:42:20;;;;;;;0.82;0.60;;;28.40;52.70;;;;;;10566571;28;20040;-24
2023/04/30 18:47:23;;;;;;;0.70;0.70;;;28.30;53.00;;;;;;10567837;28;20053;-24
2023/04/30 18:52:25;;;;;;;0.77;0.60;;;28.20;53.10;;;;;;10562056;28;20140;-25
2023/04/30 18:57:29;;;;;;;0.68;0.50;;;28.10;53.20;;;;;;10559859;28;20043;-24
2023/04/30 19:02:31;;;;;;;0.60;0.60;;;28.00;53.10;;;;;;10553602;28;20458;-24
2023/04/30 19:07:36;;;;;;;1.85;0.60;;;28.00;53.50;;;;;;10557100;28;20044;-24
2023/04/30 19:12:42;;;;;;;0.73;0.50;;;27.90;53.60;;;;;;10551526;28;20040;-23
2023/04/30 19:17:50;;;;;;;0.82;0.68;;;27.80;53.80;;;;;;10559921;28;20079;-24
2023/04/30 19:22:51;;;;;;;0.90;0.63;;;27.60;54.20;;;;;;10559479;28;20098;-25
2023/04/30 19:27:55;;;;;;;0.47;0.47;;;27.60;54.60;;;;;;10545719;28;20054;-25
2023/04/30 19:32:58;;;;;;;0.75;0.57;;;27.60;55.00;;;;;;10560007;28;20040;-23
2023/04/30 19:38:00;;;;;;;4.40;1.20;;;27.50;55.40;;;;;;10560537;28;20075;-24
2023/04/30 19:43:04;;;;;;;0.75;0.60;;;27.50;55.60;;;;;;10557858;28;20510;-24
2023/04/30 19:48:06;;;;;;;0.50;0.50;;;27.30;55.60;;;;;;10559326;28;20409;-23
2023/04/30 19:53:08;;;;;;;0.90;0.50;;;27.20;56.00;;;;;;10557802;28;20070;-24
2023/04/30 19:58:13;;;;;;;1.88;1.23;;;27.10;56.20;;;;;;10567310;28;20055;-24
2023/04/30 20:03:19;;;;;;;1.10;0.95;;;27.10;56.40;;;;;;10561278;28;20136;-25
2023/04/30 20:08:24;;;;;;;2.72;0.55;;;27.00;56.80;;;;;;10557301;28;20680;-24
2023/04/30 20:13:27;;;;;;;0.52;0.50;;;26.90;56.90;;;;;;10556967;28;20047;-25
2023/04/30 20:18:29;;;;;;;0.40;0.40;;;26.80;57.10;;;;;;10551011;28;20056;-24
2023/04/30 20:23:31;;;;;;;1.00;0.65;;;26.70;57.30;;;;;;10556918;28;20083;-24
2023/04/30 20:28:35;;;;;;;1.13;0.60;;;26.70;57.70;;;;;;10550432;28;20044;-24
2023/04/30 20:33:39;;;;;;;3.13;0.75;;;26.60;57.60;;;;;;10558468;28;20068;-24
2023/04/30 20:38:41;;;;;;;1.58;0.80;;;26.50;58.00;;;;;;10543123;28;20050;-24
2023/04/30 20:43:44;;;;;;;1.65;0.80;;;26.40;57.90;;;;;;10553625;28;20704;-24
2023/04/30 20:48:47;;;;;;;1.98;0.80;;;26.30;58.20;;;;;;10552600;28;20142;-24
2023/04/30 20:53:49;;;;;;;2.08;0.73;;;26.20;58.50;;;;;;10556062;28;20817;-24
2023/04/30 20:58:53;;;;;;;1.10;0.68;;;26.10;58.40;;;;;;10557407;28;20055;-25
2023/04/30 21:03:55;;;;;;;1.55;1.10;;;26.10;58.60;;;;;;10553391;28;20119;-25
2023/04/30 21:08:57;;;;;;;3.33;1.10;;;26.00;58.80;;;;;;10569701;28;20051;-25
2023/04/30 21:14:00;;;;;;;0.95;0.70;;;25.90;58.80;;;;;;10555513;28;20048;-25
2023/04/30 21:19:02;;;;;;;1.88;1.30;;;25.90;59.00;;;;;;10559954;28;20043;-25
2023/04/30 21:24:05;;;;;;;2.55;1.30;;;25.80;59.10;;;;;;10563280;28;20044;-24
2023/04/30 21:29:08;;;;;;;3.60;1.70;;;25.80;59.30;;;;;;10569878;28;20079;-24
2023/04/30 21:34:10;;;;;;;3.53;1.75;;;25.70;59.20;;;;;;10571301;28;20124;-25
2023/04/30 21:39:12;;;;;;;2.70;1.50;;;25.70;59.10;;;;;;10563974;28;20046;-25
2023/04/30 21:44:16;;;;;;;3.92;2.70;;;25.60;59.20;;;;;;10558293;28;20075;-24
2023/04/30 21:49:18;;;;;;;4.85;1.55;;;25.50;59.40;;;;;;10556104;28;20048;-26
2023/04/30 21:54:19;;;;;;;3.83;1.77;;;25.50;59.50;;;;;;10558736;28;20073;-24
2023/04/30 21:59:23;;;;;;;3.95;2.55;;;25.40;59.60;;;;;;10566113;28;20079;-25
2023/04/30 22:04:25;;;;;;;3.47;1.95;;;25.40;59.60;;;;;;10550653;28;20226;-23
2023/04/30 22:09:27;;;;;;;3.03;1.63;;;25.30;59.60;;;;;;10565124;28;20125;-24
2023/04/30 22:14:30;;;;;;;3.78;2.17;;;25.30;59.80;;;;;;10565265;28;20535;-24
2023/04/30 22:19:32;;;;;;;4.43;2.10;;;25.20;59.80;;;;;;10547502;28;20052;-24
2023/04/30 22:24:34;;;;;;;3.30;2.20;;;25.10;59.70;;;;;;10563938;28;20047;-24
2023/04/30 22:29:37;;;;;;;3.50;2.25;;;25.10;59.70;;;;;;10577614;28;20144;-24
2023/04/30 22:34:40;;;;;;;3.25;2.08;;;25.00;59.70;;;;;;10576374;28;20471;-24
2023/04/30 22:39:42;;;;;;;3.70;2.55;;;25.00;59.70;;;;;;10567440;28;20059;-24
2023/04/30 22:44:45;;;;;;;5.85;2.67;;;24.90;59.80;;;;;;10551877;28;20139;-24
2023/04/30 22:49:47;;;;;;;4.50;2.85;;;24.90;59.80;;;;;;10557851;28;21259;-24
2023/04/30 22:54:50;;;;;;;4.50;2.85;;;24.80;59.90;;;;;;10560499;28;20047;-24
2023/04/30 22:59:53;;;;;;;5.30;2.88;;;24.70;59.90;;;;;;10555719;28;20052;-25
2023/04/30 23:04:55;;;;;;;5.10;3.17;;;24.70;59.90;;;;;;10552030;28;20083;-24
2023/04/30 23:09:57;;;;;;;4.97;3.15;;;24.70;59.90;;;;;;10554047;28;20052;-24
2023/04/30 23:15:00;;;;;;;3.63;2.25;;;24.60;59.90;;;;;;10550763;28;20078;-22
2023/04/30 23:20:03;;;;;;;5.00;2.85;;;24.50;60.50;;;;;;10553381;28;20448;-23
2023/04/30 23:25:05;;;;;;;4.70;3.05;;;24.50;59.90;;;;;;10557484;28;20143;-24
2023/04/30 23:30:10;;;;;;;5.40;3.00;;;24.50;60.00;;;;;;10543945;28;20044;-24
2023/04/30 23:35:12;;;;;;;3.90;2.47;;;24.40;60.00;;;;;;10552679;28;20043;-24
2023/04/30 23:40:14;;;;;;;4.95;3.58;;;24.40;60.10;;;;;;10549931;28;20051;-23
2023/04/30 23:45:19;;;;;;;3.72;2.45;;;24.30;60.00;;;;;;10547508;28;20058;-24
2023/04/30 23:50:22;;;;;;;2.95;2.65;;;24.30;60.00;;;;;;10554182;28;20296;-27
2023/04/30 23:55:24;;;;;;;7.55;3.17;;;24.20;60.10;;;;;;10562254;28;20063;-23
